createdAt,value
2018-02-08T00:00:42.131Z,0.60
2018-02-08T00:03:10.660Z,0.60
2018-02-08T00:05:38.492Z,0.50
2018-02-08T00:08:06.256Z,0.50
2018-02-08T00:10:34.021Z,0.60
2018-02-08T00:13:01.837Z,0.50
2018-02-08T00:15:29.597Z,0.50
2018-02-08T00:17:57.350Z,0.50
2018-02-08T00:20:25.159Z,0.40
2018-02-08T00:22:53.683Z,0.30
2018-02-08T00:25:21.452Z,0.30
2018-02-08T00:27:49.268Z,0.30
2018-02-08T00:30:17.076Z,0.20
2018-02-08T00:32:44.834Z,0.20
2018-02-08T00:35:12.656Z,0.20
2018-02-08T00:37:40.419Z,0.20
2018-02-08T00:40:08.227Z,0.20
2018-02-08T00:42:36.808Z,0.20
2018-02-08T00:45:04.572Z,0.20
2018-02-08T00:47:32.339Z,0.20
2018-02-08T00:50:00.155Z,0.20
2018-02-08T00:52:27.911Z,0.20
2018-02-08T00:54:55.673Z,0.10
2018-02-08T00:57:23.534Z,0.10
2018-02-08T00:59:51.292Z,0.10
2018-02-08T01:02:19.816Z,0.20
2018-02-08T01:04:47.641Z,0.20
2018-02-08T01:07:15.399Z,0.20
2018-02-08T01:09:43.184Z,0.20
2018-02-08T01:12:10.995Z,0.20
2018-02-08T01:14:38.760Z,0.20
2018-02-08T01:17:06.518Z,0.20
2018-02-08T01:19:34.347Z,0.10
2018-02-08T01:22:02.104Z,0.10
2018-02-08T01:24:29.868Z,0.00
2018-02-08T01:26:57.688Z,-0.10
2018-02-08T01:29:26.215Z,0.00
2018-02-08T01:31:53.975Z,0.00
2018-02-08T01:34:21.809Z,0.00
2018-02-08T01:36:49.573Z,0.00
2018-02-08T01:39:17.340Z,-0.10
2018-02-08T01:41:45.172Z,0.00
2018-02-08T01:44:13.708Z,0.00
2018-02-08T01:46:41.476Z,0.00
2018-02-08T01:49:09.291Z,0.00
2018-02-08T01:51:37.812Z,-0.10
2018-02-08T01:54:05.572Z,-0.10
2018-02-08T01:56:33.392Z,-0.10
2018-02-08T01:59:01.918Z,0.00
2018-02-08T02:01:29.683Z,-0.10
2018-02-08T02:03:57.501Z,-0.10
2018-02-08T02:06:25.274Z,-0.10
2018-02-08T02:08:53.049Z,0.00
2018-02-08T02:11:20.876Z,0.00
2018-02-08T02:13:49.411Z,0.00
2018-02-08T02:16:17.179Z,0.00
2018-02-08T02:18:44.996Z,0.10
2018-02-08T02:21:12.763Z,0.20
2018-02-08T02:23:40.523Z,0.10
2018-02-08T02:26:08.344Z,0.10
2018-02-08T02:28:36.107Z,0.10
2018-02-08T02:31:03.892Z,0.20
2018-02-08T02:33:32.471Z,0.20
2018-02-08T02:36:01.005Z,0.20
2018-02-08T02:38:28.770Z,0.20
2018-02-08T02:40:56.588Z,0.10
2018-02-08T02:43:24.348Z,0.10
2018-02-08T02:45:52.113Z,0.10
2018-02-08T02:48:19.922Z,0.00
2018-02-08T02:50:47.685Z,0.10
2018-02-08T02:53:15.443Z,0.00
2018-02-08T02:55:43.266Z,0.00
2018-02-08T02:58:11.022Z,0.00
2018-02-08T03:00:38.808Z,-0.10
2018-02-08T03:03:06.623Z,-0.10
2018-02-08T03:05:34.387Z,0.00
2018-02-08T03:08:02.928Z,-0.10
2018-02-08T03:10:30.752Z,-0.10
2018-02-08T03:12:58.519Z,-0.20
2018-02-08T03:15:26.283Z,-0.20
2018-02-08T03:17:54.099Z,-0.20
2018-02-08T03:20:21.863Z,-0.30
2018-02-08T03:22:49.648Z,-0.30
2018-02-08T03:25:18.229Z,-0.40
2018-02-08T03:27:46.762Z,-0.50
2018-02-08T03:30:14.567Z,-0.50
2018-02-08T03:32:43.538Z,-0.60
2018-02-08T03:35:11.312Z,-0.60
2018-02-08T03:37:39.073Z,-0.60
2018-02-08T03:40:06.887Z,-0.50
2018-02-08T03:42:34.651Z,-0.60
2018-02-08T03:45:02.416Z,-0.50
2018-02-08T03:47:30.248Z,-0.50
2018-02-08T03:49:58.024Z,-0.50
2018-02-08T03:52:25.792Z,-0.50
2018-02-08T03:54:53.608Z,-0.50
2018-02-08T03:57:21.379Z,-0.50
2018-02-08T03:59:49.908Z,-0.40
2018-02-08T04:02:18.528Z,-0.40
2018-02-08T04:04:46.291Z,-0.40
2018-02-08T04:07:14.056Z,-0.40
2018-02-08T04:09:41.876Z,-0.40
2018-02-08T04:12:09.638Z,-0.50
2018-02-08T04:14:37.406Z,-0.50
2018-02-08T04:17:05.227Z,-0.50
2018-02-08T04:19:33.011Z,-0.50
2018-02-08T04:22:00.776Z,-0.40
2018-02-08T04:24:28.610Z,-0.50
2018-02-08T04:26:57.145Z,-0.50
2018-02-08T04:29:24.911Z,-0.50
2018-02-08T04:31:52.731Z,-0.50
2018-02-08T04:34:20.499Z,-0.50
2018-02-08T04:36:48.268Z,-0.40
2018-02-08T04:39:28.053Z,-0.40
2018-02-08T04:42:07.579Z,-0.40
2018-02-08T04:44:47.143Z,-0.40
2018-02-08T04:47:28.418Z,-0.50
2018-02-08T04:49:57.007Z,-0.50
2018-02-08T04:52:25.535Z,-0.40
2018-02-08T04:54:53.310Z,-0.50
2018-02-08T04:57:21.133Z,-0.40
2018-02-08T04:59:48.910Z,-0.40
2018-02-08T05:02:18.320Z,-0.40
2018-02-08T05:04:46.138Z,-0.40
2018-02-08T05:07:14.692Z,-0.40
2018-02-08T05:09:42.462Z,-0.40
2018-02-08T05:12:10.287Z,-0.40
2018-02-08T05:14:38.058Z,-0.40
2018-02-08T05:17:05.823Z,-0.50
2018-02-08T05:19:33.646Z,-0.50
2018-02-08T05:22:01.456Z,-0.50
2018-02-08T05:24:29.232Z,-0.50
2018-02-08T05:26:57.052Z,-0.50
2018-02-08T05:29:24.819Z,-0.60
2018-02-08T05:31:52.580Z,-0.60
2018-02-08T05:34:20.394Z,-0.50
2018-02-08T05:36:48.162Z,-0.50
2018-02-08T05:39:16.692Z,-0.50
2018-02-08T05:41:44.519Z,-0.50
2018-02-08T05:44:13.052Z,-0.50
2018-02-08T05:46:40.814Z,-0.60
2018-02-08T05:49:08.635Z,-0.60
2018-02-08T05:51:36.399Z,-0.60
2018-02-08T05:54:04.191Z,-0.60
2018-02-08T05:56:32.025Z,-0.60
2018-02-08T05:58:59.791Z,-0.60
2018-02-08T06:01:27.560Z,-0.50
2018-02-08T06:03:55.386Z,-0.50
2018-02-08T06:06:23.921Z,-0.50
2018-02-08T06:08:51.683Z,-0.50
2018-02-08T06:11:19.507Z,-0.50
2018-02-08T06:13:47.277Z,-0.50
2018-02-08T06:16:15.036Z,-0.50
2018-02-08T06:18:42.867Z,-0.60
2018-02-08T06:21:10.636Z,-0.60
2018-02-08T06:23:39.192Z,-0.50
2018-02-08T06:26:07.018Z,-0.50
2018-02-08T06:28:34.784Z,-0.50
2018-02-08T06:31:02.547Z,-0.40
2018-02-08T06:33:30.756Z,-0.40
2018-02-08T06:35:58.526Z,-0.30
2018-02-08T06:38:26.293Z,-0.30
2018-02-08T06:40:54.120Z,-0.30
2018-02-08T06:43:21.947Z,-0.30
2018-02-08T06:45:49.707Z,-0.30
2018-02-08T06:48:17.529Z,-0.30
2018-02-08T06:50:45.295Z,-0.20
2018-02-08T06:53:13.062Z,-0.20
2018-02-08T06:55:41.128Z,-0.20
2018-02-08T06:58:08.892Z,-0.20
2018-02-08T07:00:36.657Z,-0.30
2018-02-08T07:03:04.480Z,-0.20
2018-02-08T07:05:32.251Z,-0.10
2018-02-08T07:08:00.027Z,-0.10
2018-02-08T07:10:27.854Z,-0.10
2018-02-08T07:12:55.618Z,-0.10
2018-02-08T07:15:23.384Z,-0.10
2018-02-08T07:17:51.199Z,-0.10
2018-02-08T07:20:18.965Z,-0.20
2018-02-08T07:22:47.507Z,-0.20
2018-02-08T07:25:16.131Z,-0.30
2018-02-08T07:27:44.704Z,-0.20
2018-02-08T07:30:13.237Z,-0.20
2018-02-08T07:32:41.060Z,-0.20
2018-02-08T07:35:09.599Z,-0.10
2018-02-08T07:37:37.384Z,-0.10
2018-02-08T07:40:05.196Z,0.10
2018-02-08T07:42:32.956Z,0.10
2018-02-08T07:45:00.715Z,0.00
2018-02-08T07:47:28.523Z,0.10
2018-02-08T07:49:56.282Z,0.10
2018-02-08T07:52:24.042Z,0.10
2018-02-08T07:54:51.864Z,0.20
2018-02-08T07:57:19.624Z,0.10
2018-02-08T07:59:47.382Z,0.10
2018-02-08T08:02:15.192Z,0.10
2018-02-08T08:04:42.950Z,0.10
2018-02-08T08:07:10.712Z,0.20
2018-02-08T08:09:38.576Z,0.20
2018-02-08T08:12:06.332Z,0.20
2018-02-08T08:14:34.093Z,0.20
2018-02-08T08:17:01.902Z,0.10
2018-02-08T08:19:30.442Z,-0.10
2018-02-08T08:21:58.217Z,-0.10
2018-02-08T08:24:26.031Z,-0.10
2018-02-08T08:26:53.807Z,0.10
2018-02-08T08:29:21.572Z,0.20
2018-02-08T08:31:49.383Z,0.20
2018-02-08T08:34:17.916Z,0.40
2018-02-08T08:36:45.671Z,0.40
2018-02-08T08:39:13.479Z,0.40
2018-02-08T08:41:42.004Z,0.50
2018-02-08T08:44:09.764Z,0.50
2018-02-08T08:46:37.572Z,0.60
2018-02-08T08:49:05.333Z,0.70
2018-02-08T08:51:33.103Z,0.70
2018-02-08T08:54:00.915Z,0.80
2018-02-08T08:56:28.666Z,1.00
2018-02-08T08:58:56.426Z,1.20
2018-02-08T09:01:24.241Z,1.30
2018-02-08T09:03:52.012Z,1.60
2018-02-08T09:06:19.775Z,1.90
2018-02-08T09:08:47.583Z,2.30
2018-02-08T09:11:15.335Z,3.20
2018-02-08T09:13:43.087Z,3.50
2018-02-08T09:16:10.948Z,3.60
2018-02-08T09:18:38.703Z,3.00
2018-02-08T09:21:07.225Z,2.40
2018-02-08T09:23:35.077Z,2.40
2018-02-08T09:26:02.867Z,2.30
2018-02-08T09:28:30.619Z,2.20
2018-02-08T09:30:58.443Z,2.00
2018-02-08T09:33:26.232Z,1.90
2018-02-08T09:35:53.994Z,2.00
2018-02-08T09:38:21.803Z,2.30
2018-02-08T09:40:49.564Z,2.70
2018-02-08T09:43:17.318Z,3.00
2018-02-08T09:45:45.132Z,3.20
2018-02-08T09:48:12.892Z,3.30
2018-02-08T09:50:40.648Z,3.10
2018-02-08T09:53:08.481Z,2.60
2018-02-08T09:55:37.007Z,2.60
2018-02-08T09:58:04.762Z,2.60
2018-02-08T10:00:32.578Z,2.60
2018-02-08T10:03:00.339Z,2.50
2018-02-08T10:05:28.095Z,2.40
2018-02-08T10:07:55.913Z,2.60
2018-02-08T10:10:23.675Z,2.70
2018-02-08T10:12:51.437Z,2.70
2018-02-08T10:15:19.306Z,2.80
2018-02-08T10:17:47.067Z,2.90
2018-02-08T10:20:14.820Z,3.10
2018-02-08T10:22:42.627Z,3.10
2018-02-08T10:25:10.395Z,2.80
2018-02-08T10:27:38.153Z,2.60
2018-02-08T10:30:05.975Z,2.40
2018-02-08T10:32:33.731Z,2.40
2018-02-08T10:35:01.488Z,2.20
2018-02-08T10:37:29.306Z,2.10
2018-02-08T10:39:57.100Z,2.10
2018-02-08T10:42:24.897Z,2.20
2018-02-08T10:44:52.735Z,2.00
2018-02-08T10:47:20.502Z,1.80
2018-02-08T10:49:48.263Z,1.80
2018-02-08T10:52:16.121Z,1.80
2018-02-08T10:54:43.888Z,1.90
2018-02-08T10:57:11.659Z,2.00
2018-02-08T10:59:39.468Z,2.10
2018-02-08T11:02:07.230Z,2.20
2018-02-08T11:04:34.988Z,2.10
2018-02-08T11:07:02.797Z,2.00
2018-02-08T11:09:30.564Z,2.00
2018-02-08T11:11:58.332Z,2.10
2018-02-08T11:14:26.157Z,2.00
2018-02-08T11:16:54.682Z,1.90
2018-02-08T11:19:22.457Z,1.90
2018-02-08T11:21:50.279Z,2.00
2018-02-08T11:24:18.044Z,2.00
2018-02-08T11:26:45.804Z,2.10
2018-02-08T11:29:13.632Z,2.10
2018-02-08T11:31:41.387Z,2.10
2018-02-08T11:34:09.146Z,2.20
2018-02-08T11:36:36.984Z,2.20
2018-02-08T11:39:04.780Z,2.00
2018-02-08T11:41:32.547Z,2.10
2018-02-08T11:44:01.135Z,2.10
2018-02-08T11:46:29.660Z,2.00
2018-02-08T11:48:57.432Z,2.00
2018-02-08T11:51:25.255Z,2.00
2018-02-08T11:53:53.770Z,1.90
2018-02-08T11:56:21.527Z,1.90
2018-02-08T11:58:49.347Z,1.90
2018-02-08T12:01:17.876Z,2.00
2018-02-08T12:03:45.645Z,2.10
2018-02-08T12:06:13.453Z,2.20
2018-02-08T12:08:41.988Z,2.20
2018-02-08T12:11:09.751Z,2.10
2018-02-08T12:13:38.332Z,2.30
2018-02-08T12:16:06.089Z,2.20
2018-02-08T12:18:33.842Z,2.30
2018-02-08T12:21:01.672Z,2.20
2018-02-08T12:23:29.430Z,2.20
2018-02-08T12:25:57.959Z,2.20
2018-02-08T12:28:26.542Z,2.20
2018-02-08T12:30:54.354Z,2.20
2018-02-08T12:33:22.112Z,2.10
2018-02-08T12:35:50.683Z,2.00
2018-02-08T12:38:19.217Z,2.00
2018-02-08T12:40:46.987Z,2.10
2018-02-08T12:43:14.803Z,2.10
2018-02-08T12:45:42.569Z,2.00
2018-02-08T12:48:10.324Z,2.10
2018-02-08T12:50:38.140Z,2.00
2018-02-08T12:53:05.916Z,2.10
2018-02-08T12:55:33.682Z,2.10
2018-02-08T12:58:01.492Z,2.10
2018-02-08T13:00:29.244Z,2.00
2018-02-08T13:02:57.065Z,2.00
2018-02-08T13:05:24.878Z,1.90
2018-02-08T13:07:52.640Z,1.90
2018-02-08T13:10:20.398Z,1.90
2018-02-08T13:12:48.272Z,1.80
2018-02-08T13:15:16.028Z,1.90
2018-02-08T13:17:43.796Z,1.80
2018-02-08T13:20:12.492Z,1.80
2018-02-08T13:22:40.256Z,1.80
2018-02-08T13:25:08.019Z,1.80
2018-02-08T13:27:35.844Z,1.70
2018-02-08T13:30:04.256Z,1.60
2018-02-08T13:32:32.033Z,1.60
2018-02-08T13:34:59.851Z,1.60
2018-02-08T13:37:27.625Z,1.60
2018-02-08T13:39:55.408Z,1.60
2018-02-08T13:42:33.151Z,1.60
2018-02-08T13:45:01.711Z,1.50
2018-02-08T13:47:31.326Z,1.50
2018-02-08T14:03:29.371Z,1.40
2018-02-08T14:05:57.915Z,1.40
2018-02-08T14:08:26.444Z,1.50
2018-02-08T14:10:55.023Z,1.40
2018-02-08T14:13:23.547Z,1.40
2018-02-08T14:15:51.308Z,1.40
2018-02-08T14:18:19.121Z,1.50
2018-02-08T14:20:47.648Z,1.60
2018-02-08T14:23:15.416Z,1.50
2018-02-08T14:25:43.247Z,1.60
2018-02-08T14:28:11.019Z,1.50
2018-02-08T14:30:38.782Z,1.50
2018-02-08T14:33:06.600Z,1.40
2018-02-08T14:35:34.362Z,1.30
2018-02-08T14:38:02.125Z,1.20
2018-02-08T14:40:29.941Z,1.20
2018-02-08T14:42:57.699Z,1.10
2018-02-08T14:45:25.457Z,1.10
2018-02-08T14:47:53.271Z,1.20
2018-02-08T14:50:21.035Z,1.10
2018-02-08T14:52:48.799Z,1.10
2018-02-08T14:55:16.620Z,1.10
2018-02-08T14:57:44.376Z,1.00
2018-02-08T15:00:12.139Z,1.00
2018-02-08T15:02:39.962Z,1.00
2018-02-08T15:05:08.488Z,0.90
2018-02-08T15:07:36.244Z,0.80
2018-02-08T15:10:04.092Z,0.80
2018-02-08T15:12:31.889Z,0.80
2018-02-08T15:15:00.424Z,0.70
2018-02-08T15:17:28.248Z,0.70
2018-02-08T15:19:56.008Z,0.70
2018-02-08T15:22:23.764Z,0.70
2018-02-08T15:24:51.587Z,0.70
2018-02-08T15:27:19.340Z,0.70
2018-02-08T15:29:47.097Z,0.70
2018-02-08T15:32:14.924Z,0.60
2018-02-08T15:34:42.676Z,0.60
2018-02-08T15:37:10.431Z,0.50
2018-02-08T15:39:38.277Z,0.50
2018-02-08T15:42:06.047Z,0.50
2018-02-08T15:44:33.799Z,0.40
2018-02-08T15:47:01.640Z,0.40
2018-02-08T15:49:29.391Z,0.30
2018-02-08T15:51:57.200Z,0.30
2018-02-08T15:54:25.018Z,0.30
2018-02-08T15:56:52.768Z,0.30
2018-02-08T15:59:21.291Z,0.20
2018-02-08T16:01:49.099Z,0.10
2018-02-08T16:04:17.651Z,0.10
2018-02-08T16:06:46.185Z,0.00
2018-02-08T16:09:14.004Z,0.00
2018-02-08T16:11:41.764Z,0.00
2018-02-08T16:14:09.540Z,-0.10
2018-02-08T16:16:37.363Z,-0.10
2018-02-08T16:19:05.128Z,-0.10
2018-02-08T16:21:32.903Z,-0.10
2018-02-08T16:24:00.726Z,-0.10
2018-02-08T16:26:28.513Z,-0.20
2018-02-08T16:28:56.284Z,-0.10
2018-02-08T16:31:24.127Z,-0.20
2018-02-08T16:33:51.900Z,-0.20
2018-02-08T16:36:19.677Z,-0.30
2018-02-08T16:38:47.503Z,-0.30
2018-02-08T16:41:15.291Z,-0.30
2018-02-08T16:43:43.113Z,-0.40
2018-02-08T16:46:10.957Z,-0.40
2018-02-08T16:48:39.501Z,-0.50
2018-02-08T16:51:07.272Z,-0.50
2018-02-08T16:53:35.095Z,-0.60
2018-02-08T16:56:02.871Z,-0.60
2018-02-08T16:58:30.635Z,-0.50
2018-02-08T17:00:58.466Z,-0.60
2018-02-08T17:03:26.996Z,-0.60
2018-02-08T17:05:54.760Z,-0.70
2018-02-08T17:08:22.639Z,-0.60
2018-02-08T17:10:50.453Z,-0.60
2018-02-08T17:13:18.233Z,-0.50
2018-02-08T17:15:46.067Z,-0.60
2018-02-08T17:18:13.889Z,-0.60
2018-02-08T17:20:41.665Z,-0.60
2018-02-08T17:23:09.488Z,-0.70
2018-02-08T17:25:37.262Z,-0.70
2018-02-08T17:28:05.030Z,-0.80
2018-02-08T17:30:32.844Z,-0.70
2018-02-08T17:33:00.623Z,-0.80
2018-02-08T17:35:28.390Z,-0.70
2018-02-08T17:38:04.175Z,-0.80
2018-02-08T17:40:31.939Z,-0.80
2018-02-08T17:42:59.732Z,-0.80
2018-02-08T17:45:27.551Z,-0.80
2018-02-08T17:47:56.089Z,-0.90
2018-02-08T17:50:23.851Z,-0.90
2018-02-08T17:52:51.664Z,-0.90
2018-02-08T17:55:19.437Z,-1.00
2018-02-08T17:57:47.205Z,-1.00
2018-02-08T18:00:15.043Z,-1.00
2018-02-08T18:02:42.823Z,-1.00
2018-02-08T18:05:10.589Z,-1.00
2018-02-08T18:07:38.423Z,-1.00
2018-02-08T18:10:07.008Z,-1.00
2018-02-08T18:12:34.768Z,-1.00
2018-02-08T18:15:02.599Z,-1.00
2018-02-08T18:17:30.383Z,-1.00
2018-02-08T18:19:58.148Z,-1.00
2018-02-08T18:22:25.972Z,-1.00
2018-02-08T18:24:53.741Z,-1.10
2018-02-08T18:27:21.521Z,-1.10
2018-02-08T18:29:49.381Z,-1.10
2018-02-08T18:32:17.175Z,-1.10
2018-02-08T18:34:44.953Z,-1.20
2018-02-08T18:37:12.773Z,-1.20
2018-02-08T18:39:40.548Z,-1.20
2018-02-08T18:42:08.339Z,-1.30
2018-02-08T18:44:36.158Z,-1.30
2018-02-08T18:47:03.928Z,-1.30
2018-02-08T18:49:31.698Z,-1.30
2018-02-08T18:51:59.527Z,-1.30
2018-02-08T18:54:27.336Z,-1.30
2018-02-08T18:56:55.103Z,-1.40
2018-02-08T18:59:22.928Z,-1.40
2018-02-08T19:01:50.701Z,-1.40
2018-02-08T19:04:18.476Z,-1.40
2018-02-08T19:06:46.296Z,-1.40
2018-02-08T19:09:14.065Z,-1.40
2018-02-08T19:11:41.859Z,-1.40
2018-02-08T19:14:09.851Z,-1.40
2018-02-08T19:16:37.623Z,-1.50
2018-02-08T19:19:05.394Z,-1.60
2018-02-08T19:21:34.136Z,-1.60
2018-02-08T19:24:01.913Z,-1.70
2018-02-08T19:26:29.703Z,-1.70
2018-02-08T19:28:58.324Z,-1.70
2018-02-08T19:31:26.091Z,-1.70
2018-02-08T19:33:53.854Z,-1.70
2018-02-08T19:36:21.678Z,-1.70
2018-02-08T19:38:50.207Z,-1.80
2018-02-08T19:41:17.991Z,-1.80
2018-02-08T19:43:45.823Z,-1.80
2018-02-08T19:46:13.592Z,-1.90
2018-02-08T19:48:41.373Z,-1.90
2018-02-08T19:51:09.190Z,-2.00
2018-02-08T19:53:36.973Z,-2.00
2018-02-08T19:56:04.783Z,-2.10
2018-02-08T19:58:32.606Z,-2.10
2018-02-08T20:01:00.373Z,-2.00
2018-02-08T20:03:28.140Z,-2.10
2018-02-08T20:05:55.962Z,-2.00
2018-02-08T20:08:23.729Z,-2.00
2018-02-08T20:10:51.490Z,-2.10
2018-02-08T20:13:19.327Z,-2.10
2018-02-08T20:15:47.893Z,-2.10
2018-02-08T20:18:15.668Z,-2.20
2018-02-08T20:20:44.259Z,-2.20
2018-02-08T20:23:12.793Z,-2.20
2018-02-08T20:25:44.556Z,-2.20
2018-02-08T20:28:12.343Z,-2.20
2018-02-08T20:30:40.967Z,-2.10
2018-02-08T20:33:08.819Z,-2.20
2018-02-08T20:35:36.595Z,-2.20
2018-02-08T20:38:04.378Z,-2.30
2018-02-08T20:40:32.232Z,-2.30
2018-02-08T20:43:05.582Z,-2.30
2018-02-08T20:45:34.225Z,-2.30
2018-02-08T20:48:01.997Z,-2.30
2018-02-08T20:50:29.772Z,-2.20
2018-02-08T20:52:57.607Z,-2.30
2018-02-08T20:55:25.378Z,-2.30
2018-02-08T20:57:53.206Z,-2.30
2018-02-08T21:00:21.024Z,-2.20
2018-02-08T21:02:48.788Z,-2.20
2018-02-08T21:05:16.556Z,-2.10
2018-02-08T21:07:45.143Z,-2.20
2018-02-08T21:10:13.676Z,-2.20
2018-02-08T21:12:41.439Z,-2.10
2018-02-08T21:15:10.033Z,-2.10
2018-02-08T21:17:37.808Z,-2.10
2018-02-08T21:20:05.620Z,-2.00
2018-02-08T21:22:33.504Z,-2.00
2018-02-08T21:25:02.048Z,-1.90
2018-02-08T21:27:29.821Z,-2.00
2018-02-08T21:29:57.640Z,-2.00
2018-02-08T21:32:26.183Z,-1.90
2018-02-08T21:34:53.957Z,-2.00
2018-02-08T21:37:21.780Z,-2.00
2018-02-08T21:39:49.548Z,-2.00
2018-02-08T21:42:17.323Z,-2.00
2018-02-08T21:44:45.143Z,-2.10
2018-02-08T21:47:12.913Z,-2.10
2018-02-08T21:49:41.464Z,-2.10
2018-02-08T21:52:09.288Z,-2.10
2018-02-08T21:54:37.122Z,-2.10
2018-02-08T21:57:05.658Z,-2.20
2018-02-08T21:59:33.476Z,-2.30
2018-02-08T22:02:01.240Z,-2.30
2018-02-08T22:04:29.020Z,-2.30
2018-02-08T22:06:56.842Z,-2.40
2018-02-08T22:09:25.383Z,-2.40
2018-02-08T22:11:53.154Z,-2.40
2018-02-08T22:14:20.983Z,-2.40
2018-02-08T22:16:48.749Z,-2.60
2018-02-08T22:19:16.516Z,-2.70
2018-02-08T22:21:44.340Z,-2.70
2018-02-08T22:24:12.887Z,-2.90
2018-02-08T22:26:40.699Z,-2.90
2018-02-08T22:29:08.521Z,-3.00
2018-02-08T22:31:36.289Z,-3.00
2018-02-08T22:34:04.064Z,-3.00
2018-02-08T22:36:32.646Z,-3.10
2018-02-08T22:39:01.188Z,-3.10
2018-02-08T22:41:28.951Z,-3.10
2018-02-08T22:43:56.776Z,-3.00
2018-02-08T22:46:24.550Z,-3.00
2018-02-08T22:48:52.315Z,-3.00
2018-02-08T22:51:20.148Z,-3.10
2018-02-08T22:53:48.690Z,-3.10
2018-02-08T22:56:16.469Z,-3.10
2018-02-08T22:58:44.287Z,-3.20
2018-02-08T23:01:12.060Z,-3.30
2018-02-08T23:03:39.827Z,-3.30
2018-02-08T23:06:07.668Z,-3.30
2018-02-08T23:08:35.435Z,-3.30
2018-02-08T23:11:03.191Z,-3.30
2018-02-08T23:13:31.007Z,-3.30
2018-02-08T23:15:58.767Z,-3.30
2018-02-08T23:18:26.538Z,-3.20
2018-02-08T23:20:55.123Z,-3.20
2018-02-08T23:23:23.656Z,-3.30
2018-02-08T23:25:51.428Z,-3.30
2018-02-08T23:28:20.011Z,-3.30
2018-02-08T23:30:47.779Z,-3.30
2018-02-08T23:33:15.547Z,-3.30
2018-02-08T23:35:43.379Z,-3.30
2018-02-08T23:38:11.157Z,-3.30
2018-02-08T23:40:38.923Z,-3.30
2018-02-08T23:43:06.752Z,-3.40
2018-02-08T23:45:34.527Z,-3.50
2018-02-08T23:48:02.301Z,-3.50
2018-02-08T23:50:30.126Z,-3.50
2018-02-08T23:52:57.907Z,-3.50
2018-02-08T23:55:25.675Z,-3.60
2018-02-08T23:57:53.502Z,-3.60
